createdAt,value
2022-08-20T00:00:42.130Z,19.52
2022-08-20T00:01:44.337Z,19.55
2022-08-20T00:02:51.667Z,19.46
2022-08-20T00:03:53.824Z,19.47
2022-08-20T00:04:57.344Z,19.43
2022-08-20T00:06:04.139Z,19.46
2022-08-20T00:07:06.520Z,19.44
2022-08-20T00:08:10.004Z,19.36
2022-08-20T00:09:12.380Z,19.35
2022-08-20T00:10:15.069Z,19.40
2022-08-20T00:11:22.091Z,19.39
2022-08-20T00:12:25.088Z,19.34
2022-08-20T00:13:34.923Z,19.35
2022-08-20T00:14:37.609Z,19.31
2022-08-20T00:15:41.314Z,19.30
2022-08-20T00:16:43.496Z,19.31
2022-08-20T00:17:45.531Z,19.32
2022-08-20T00:18:47.961Z,19.25
2022-08-20T00:19:50.081Z,19.23
2022-08-20T00:20:55.486Z,19.28
2022-08-20T00:21:59.787Z,19.29
2022-08-20T00:23:02.149Z,19.25
2022-08-20T00:24:04.897Z,19.22
2022-08-20T00:25:08.539Z,19.26
2022-08-20T00:26:11.408Z,19.21
2022-08-20T00:27:13.467Z,19.15
2022-08-20T00:28:17.367Z,19.22
2022-08-20T00:29:20.307Z,19.16
2022-08-20T00:30:23.232Z,19.21
2022-08-20T00:31:25.824Z,19.21
2022-08-20T00:32:27.945Z,19.15
2022-08-20T00:33:30.381Z,19.15
2022-08-20T00:34:32.670Z,19.12
2022-08-20T00:35:37.593Z,19.11
2022-08-20T00:36:39.738Z,19.10
2022-08-20T00:37:42.552Z,19.09
2022-08-20T00:38:47.103Z,19.03
2022-08-20T00:39:49.298Z,19.02
2022-08-20T00:40:59.539Z,19.07
2022-08-20T00:42:04.806Z,19.03
2022-08-20T00:43:23.886Z,19.00
2022-08-20T00:44:25.959Z,18.97
2022-08-20T00:45:30.830Z,19.00
2022-08-20T00:46:34.553Z,19.12
2022-08-20T00:47:37.908Z,19.03
2022-08-20T00:48:42.624Z,19.01
2022-08-20T00:49:45.774Z,18.94
2022-08-20T00:50:48.472Z,18.95
2022-08-20T00:51:59.338Z,18.94
2022-08-20T00:53:05.903Z,18.96
2022-08-20T00:54:21.814Z,18.90
2022-08-20T00:55:30.978Z,18.86
2022-08-20T00:56:35.401Z,18.88
2022-08-20T00:57:59.592Z,18.88
2022-08-20T00:59:11.614Z,18.84
2022-08-20T01:00:20.700Z,18.83
2022-08-20T01:01:26.123Z,18.82
2022-08-20T01:02:31.934Z,18.79
2022-08-20T01:03:37.066Z,18.79
2022-08-20T01:04:39.812Z,18.79
2022-08-20T01:05:45.428Z,18.75
2022-08-20T01:06:48.784Z,18.76
2022-08-20T01:07:53.990Z,18.76
2022-08-20T01:08:56.820Z,18.75
2022-08-20T01:10:00.797Z,18.78
2022-08-20T01:11:22.252Z,18.78
2022-08-20T01:12:25.926Z,18.74
2022-08-20T01:13:28.057Z,18.70
2022-08-20T01:14:36.083Z,18.70
2022-08-20T01:15:43.428Z,18.67
2022-08-20T01:16:49.408Z,18.70
2022-08-20T01:17:55.137Z,18.69
2022-08-20T01:19:01.294Z,18.70
2022-08-20T01:20:10.749Z,18.63
2022-08-20T01:21:13.008Z,18.64
2022-08-20T01:22:44.146Z,18.65
2022-08-20T01:23:57.003Z,18.58
2022-08-20T01:25:15.741Z,18.57
2022-08-20T01:26:25.105Z,18.54
2022-08-20T01:27:28.365Z,18.51
2022-08-20T01:28:50.853Z,18.50
2022-08-20T01:29:53.554Z,18.45
2022-08-20T01:30:56.627Z,18.48
2022-08-20T01:32:01.586Z,18.48
2022-08-20T01:33:05.116Z,18.48
2022-08-20T01:34:11.235Z,18.45
2022-08-20T01:35:18.469Z,18.44
2022-08-20T01:36:30.517Z,18.44
2022-08-20T01:37:32.660Z,18.48
2022-08-20T01:38:35.655Z,18.45
2022-08-20T01:39:38.290Z,18.42
2022-08-20T01:40:55.517Z,18.42
2022-08-20T01:42:21.434Z,18.43
2022-08-20T01:43:24.445Z,18.42
2022-08-20T01:44:27.499Z,18.42
2022-08-20T01:45:32.020Z,18.42
2022-08-20T01:46:42.319Z,18.43
2022-08-20T01:47:47.404Z,18.40
2022-08-20T01:48:53.786Z,18.41
2022-08-20T01:50:00.186Z,18.38
2022-08-20T01:51:10.945Z,18.37
2022-08-20T01:52:23.042Z,18.37
2022-08-20T01:53:30.427Z,18.36
2022-08-20T01:54:34.209Z,18.34
2022-08-20T01:55:38.419Z,18.31
2022-08-20T01:57:02.479Z,18.36
2022-08-20T01:58:05.081Z,18.28
2022-08-20T01:59:07.386Z,18.29
2022-08-20T02:00:20.238Z,18.27
2022-08-20T02:01:35.412Z,18.25
2022-08-20T02:02:49.725Z,18.25
2022-08-20T02:03:54.243Z,18.21
2022-08-20T02:04:58.891Z,18.21
2022-08-20T02:06:02.136Z,18.21
2022-08-20T02:07:07.085Z,18.15
2022-08-20T02:08:10.360Z,18.20
2022-08-20T02:09:16.175Z,18.20
2022-08-20T02:10:19.452Z,18.16
2022-08-20T02:11:23.656Z,18.14
2022-08-20T02:12:27.539Z,18.15
2022-08-20T02:13:30.731Z,18.14
2022-08-20T02:14:33.835Z,18.15
2022-08-20T02:15:42.908Z,18.14
2022-08-20T02:16:54.684Z,18.15
2022-08-20T02:17:58.033Z,18.16
2022-08-20T02:19:12.762Z,18.16
2022-08-20T02:20:24.037Z,18.09
2022-08-20T02:21:28.899Z,18.09
2022-08-20T02:22:50.588Z,18.08
2022-08-20T02:23:54.693Z,18.04
2022-08-20T02:24:57.115Z,18.00
2022-08-20T02:25:59.806Z,18.00
2022-08-20T02:27:02.188Z,18.02
2022-08-20T02:28:09.961Z,17.99
2022-08-20T02:29:13.659Z,18.02
2022-08-20T02:30:27.774Z,18.00
2022-08-20T02:31:34.844Z,18.04
2022-08-20T02:32:43.683Z,17.99
2022-08-20T02:34:18.459Z,18.03
2022-08-20T02:35:13.703Z,18.06
2022-08-20T02:36:18.907Z,18.12
2022-08-20T02:37:21.095Z,18.12
2022-08-20T02:38:23.852Z,18.21
2022-08-20T02:39:26.967Z,18.38
2022-08-20T02:40:31.558Z,18.62
2022-08-20T02:41:35.353Z,18.85
2022-08-20T02:42:39.375Z,18.92
2022-08-20T02:43:41.938Z,19.06
2022-08-20T02:44:44.150Z,19.16
2022-08-20T02:45:46.742Z,19.38
2022-08-20T02:46:50.386Z,19.56
2022-08-20T02:47:57.243Z,19.69
2022-08-20T02:49:00.560Z,19.84
2022-08-20T02:50:03.783Z,19.96
2022-08-20T02:51:10.194Z,19.96
2022-08-20T02:52:12.280Z,20.07
2022-08-20T02:53:14.537Z,20.16
2022-08-20T02:54:19.371Z,20.36
2022-08-20T02:55:27.447Z,20.42
2022-08-20T02:56:30.513Z,20.53
2022-08-20T02:57:33.384Z,20.55
2022-08-20T02:58:38.667Z,20.61
2022-08-20T02:59:40.932Z,20.73
2022-08-20T03:00:43.348Z,21.03
2022-08-20T03:01:46.354Z,21.05
2022-08-20T03:02:49.074Z,20.84
2022-08-20T03:03:51.245Z,20.24
2022-08-20T03:04:53.344Z,20.17
2022-08-20T03:05:58.380Z,19.89
2022-08-20T03:07:00.577Z,20.01
2022-08-20T03:08:04.952Z,19.64
2022-08-20T03:09:09.192Z,19.62
2022-08-20T03:10:12.859Z,19.55
2022-08-20T03:11:14.995Z,19.32
2022-08-20T03:12:17.195Z,19.32
2022-08-20T03:13:20.788Z,19.17
2022-08-20T03:14:23.320Z,18.96
2022-08-20T03:15:25.749Z,18.95
2022-08-20T03:16:28.006Z,18.92
2022-08-20T03:17:30.689Z,18.98
2022-08-20T03:18:38.359Z,18.93
2022-08-20T03:19:40.543Z,18.92
2022-08-20T03:20:43.167Z,18.91
2022-08-20T03:21:48.391Z,18.83
2022-08-20T03:22:50.579Z,18.80
2022-08-20T03:23:52.809Z,18.80
2022-08-20T03:24:55.720Z,18.82
2022-08-20T03:26:13.354Z,18.81
2022-08-20T03:27:17.039Z,18.86
2022-08-20T03:28:24.274Z,18.81
2022-08-20T03:29:26.424Z,18.83
2022-08-20T03:30:29.554Z,18.78
2022-08-20T03:31:31.859Z,18.70
2022-08-20T03:32:37.062Z,18.86
2022-08-20T03:33:39.792Z,18.83
2022-08-20T03:34:55.481Z,18.63
2022-08-20T03:35:58.555Z,18.61
2022-08-20T03:37:00.701Z,18.63
2022-08-20T03:38:10.413Z,18.71
2022-08-20T03:39:13.726Z,18.72
2022-08-20T03:40:29.978Z,18.59
2022-08-20T03:41:33.546Z,18.75
2022-08-20T03:42:37.885Z,18.70
2022-08-20T03:43:42.327Z,18.76
2022-08-20T03:44:44.551Z,18.79
2022-08-20T03:45:47.737Z,18.87
2022-08-20T03:46:49.992Z,18.85
2022-08-20T03:47:54.057Z,18.73
2022-08-20T03:48:59.961Z,18.77
2022-08-20T03:50:05.071Z,18.83
2022-08-20T03:51:07.968Z,18.93
2022-08-20T03:52:10.098Z,18.96
2022-08-20T03:53:14.730Z,19.05
2022-08-20T03:54:17.341Z,18.91
2022-08-20T03:55:20.046Z,18.83
2022-08-20T03:56:22.064Z,18.93
2022-08-20T03:57:24.943Z,18.93
2022-08-20T03:58:34.589Z,19.07
2022-08-20T03:59:38.551Z,18.94
2022-08-20T04:00:45.552Z,18.98
2022-08-20T04:01:47.808Z,19.31
2022-08-20T04:02:50.248Z,19.95
2022-08-20T04:03:55.218Z,21.10
2022-08-20T04:06:02.212Z,23.23
2022-08-20T04:07:26.210Z,23.79
2022-08-20T04:08:31.598Z,24.50
2022-08-20T04:09:34.834Z,24.39
2022-08-20T04:10:37.701Z,24.92
2022-08-20T04:12:05.734Z,25.48
2022-08-20T04:13:09.213Z,24.88
2022-08-20T04:14:15.913Z,25.52
2022-08-20T04:15:24.865Z,24.63
2022-08-20T04:16:27.703Z,23.87
2022-08-20T04:17:29.752Z,23.57
2022-08-20T04:18:32.292Z,23.29
2022-08-20T04:19:35.650Z,22.95
2022-08-20T04:20:40.321Z,22.52
2022-08-20T04:21:42.432Z,22.24
2022-08-20T04:22:56.340Z,21.92
2022-08-20T04:24:04.533Z,21.24
2022-08-20T04:25:11.137Z,21.42
2022-08-20T04:26:18.314Z,21.52
2022-08-20T04:27:21.630Z,21.40
2022-08-20T04:28:28.801Z,21.52
2022-08-20T04:29:35.291Z,21.58
2022-08-20T04:30:38.113Z,21.71
2022-08-20T04:31:45.505Z,21.44
2022-08-20T04:32:48.979Z,21.40
2022-08-20T04:33:51.942Z,21.55
2022-08-20T04:34:54.264Z,21.35
2022-08-20T04:36:01.114Z,21.34
2022-08-20T04:37:03.804Z,21.55
2022-08-20T04:38:10.102Z,21.12
2022-08-20T04:39:12.247Z,21.13
2022-08-20T04:40:37.074Z,21.34
2022-08-20T04:41:39.230Z,21.79
2022-08-20T04:42:41.578Z,21.75
2022-08-20T04:43:45.909Z,21.94
2022-08-20T04:44:47.958Z,21.91
2022-08-20T04:45:53.572Z,21.68
2022-08-20T04:46:56.288Z,22.47
2022-08-20T04:47:58.440Z,24.02
2022-08-20T04:49:04.371Z,24.62
2022-08-20T04:50:13.938Z,25.54
2022-08-20T04:51:18.036Z,26.56
2022-08-20T04:52:20.460Z,27.43
2022-08-20T04:53:26.002Z,28.55
2022-08-20T04:54:28.190Z,28.24
2022-08-20T04:55:34.152Z,27.55
2022-08-20T04:56:39.882Z,26.74
2022-08-20T04:57:43.723Z,26.34
2022-08-20T04:58:51.378Z,25.86
2022-08-20T04:59:59.590Z,24.82
2022-08-20T05:01:08.770Z,24.53
2022-08-20T05:02:10.875Z,24.01
2022-08-20T05:03:18.291Z,24.26
2022-08-20T05:04:20.558Z,24.36
2022-08-20T05:05:22.889Z,24.10
2022-08-20T05:06:28.787Z,23.76
2022-08-20T05:07:31.013Z,23.72
2022-08-20T05:08:33.697Z,23.67
2022-08-20T05:09:43.859Z,23.62
2022-08-20T05:10:47.180Z,23.26
2022-08-20T05:11:49.348Z,23.54
2022-08-20T05:12:56.899Z,23.19
2022-08-20T05:13:59.689Z,23.10
2022-08-20T05:15:01.833Z,22.76
2022-08-20T05:16:05.927Z,22.42
2022-08-20T05:17:08.684Z,22.22
2022-08-20T05:18:10.992Z,22.11
2022-08-20T05:19:14.059Z,22.26
2022-08-20T05:20:18.108Z,22.11
2022-08-20T05:21:21.568Z,22.21
2022-08-20T05:22:25.074Z,22.12
2022-08-20T05:23:37.126Z,22.22
2022-08-20T05:24:39.947Z,22.13
2022-08-20T05:25:44.144Z,21.95
2022-08-20T05:26:46.853Z,21.97
2022-08-20T05:27:48.987Z,21.89
2022-08-20T05:28:57.942Z,21.84
2022-08-20T05:30:07.423Z,21.90
2022-08-20T05:31:12.483Z,21.75
2022-08-20T05:32:16.744Z,21.78
2022-08-20T05:33:22.094Z,21.71
2022-08-20T05:34:25.304Z,21.62
2022-08-20T05:35:27.706Z,21.59
2022-08-20T05:36:30.036Z,21.51
2022-08-20T05:37:32.887Z,21.52
2022-08-20T05:38:36.662Z,21.37
2022-08-20T05:39:38.826Z,21.14
2022-08-20T05:40:42.672Z,21.12
2022-08-20T05:41:44.810Z,21.19
2022-08-20T05:42:47.164Z,21.19
2022-08-20T05:43:49.236Z,21.14
2022-08-20T05:44:53.689Z,21.30
2022-08-20T05:45:58.574Z,21.21
2022-08-20T05:47:04.173Z,21.18
2022-08-20T05:48:08.568Z,21.30
2022-08-20T05:49:13.742Z,21.23
2022-08-20T05:50:23.140Z,21.22
2022-08-20T05:51:25.585Z,21.05
2022-08-20T05:52:29.622Z,21.02
2022-08-20T05:53:32.951Z,21.00
2022-08-20T05:54:35.740Z,20.99
2022-08-20T05:55:40.184Z,20.95
2022-08-20T05:56:42.325Z,20.87
2022-08-20T05:57:45.885Z,20.94
2022-08-20T05:58:48.415Z,20.93
2022-08-20T05:59:54.566Z,20.93
2022-08-20T06:00:56.919Z,20.97
2022-08-20T06:01:59.105Z,21.08
2022-08-20T06:03:19.497Z,21.15
2022-08-20T06:04:32.261Z,21.12
2022-08-20T06:05:34.938Z,21.10
2022-08-20T06:06:45.344Z,21.21
2022-08-20T06:07:50.885Z,21.12
2022-08-20T06:08:57.130Z,21.08
2022-08-20T06:10:03.361Z,21.13
2022-08-20T06:11:06.191Z,21.22
2022-08-20T06:12:11.944Z,21.12
2022-08-20T06:13:17.989Z,21.07
2022-08-20T06:14:20.647Z,21.05
2022-08-20T06:15:22.707Z,21.00
2022-08-20T06:16:28.998Z,21.03
2022-08-20T06:17:39.397Z,21.10
2022-08-20T06:18:42.155Z,21.24
2022-08-20T06:19:47.178Z,21.25
2022-08-20T06:20:50.671Z,21.18
2022-08-20T06:21:52.893Z,21.18
2022-08-20T06:22:56.347Z,21.19
2022-08-20T06:24:01.089Z,21.26
2022-08-20T06:25:06.898Z,21.40
2022-08-20T06:26:09.494Z,21.19
2022-08-20T06:27:15.696Z,21.31
2022-08-20T06:28:18.909Z,21.21
2022-08-20T06:29:21.339Z,21.35
2022-08-20T06:30:23.866Z,21.37
2022-08-20T06:31:27.686Z,21.46
2022-08-20T06:32:32.552Z,21.44
2022-08-20T06:33:35.299Z,21.47
2022-08-20T06:34:37.584Z,21.41
2022-08-20T06:35:52.334Z,21.44
2022-08-20T06:36:55.597Z,21.38
2022-08-20T06:38:00.524Z,21.36
2022-08-20T06:39:02.976Z,21.41
2022-08-20T06:40:19.851Z,21.34
2022-08-20T06:41:22.090Z,21.30
2022-08-20T06:42:24.625Z,21.33
2022-08-20T06:43:26.778Z,21.39
2022-08-20T06:44:29.205Z,21.30
2022-08-20T06:45:34.415Z,21.34
2022-08-20T06:46:38.374Z,21.38
2022-08-20T06:47:42.247Z,21.37
2022-08-20T06:48:44.439Z,21.22
2022-08-20T06:49:53.736Z,21.33
2022-08-20T06:50:56.109Z,21.40
2022-08-20T06:51:58.157Z,21.51
2022-08-20T06:53:01.476Z,21.52
2022-08-20T06:54:05.357Z,21.51
2022-08-20T06:55:10.367Z,21.35
2022-08-20T06:56:13.409Z,21.45
2022-08-20T06:57:16.273Z,21.57
2022-08-20T06:58:37.557Z,21.64
2022-08-20T06:59:42.024Z,21.67
2022-08-20T07:00:45.374Z,21.82
2022-08-20T07:01:49.628Z,21.99
2022-08-20T07:02:51.812Z,21.76
2022-08-20T07:03:56.299Z,21.69
2022-08-20T07:04:58.367Z,21.76
2022-08-20T07:06:00.811Z,21.88
2022-08-20T07:07:03.391Z,21.70
2022-08-20T07:08:05.938Z,22.03
2022-08-20T07:09:08.457Z,22.26
2022-08-20T07:10:14.259Z,22.46
2022-08-20T07:11:16.581Z,22.53
2022-08-20T07:12:18.775Z,22.68
2022-08-20T07:13:20.925Z,22.72
2022-08-20T07:14:24.768Z,22.58
2022-08-20T07:15:27.526Z,22.47
2022-08-20T07:16:29.959Z,22.49
2022-08-20T07:17:32.436Z,22.61
2022-08-20T07:18:34.788Z,22.44
2022-08-20T07:19:37.269Z,22.26
2022-08-20T07:20:43.130Z,22.53
2022-08-20T07:21:45.298Z,22.55
2022-08-20T07:22:56.660Z,22.69
2022-08-20T07:23:58.891Z,22.73
2022-08-20T07:25:01.666Z,22.75
2022-08-20T07:26:04.151Z,22.64
2022-08-20T07:27:06.437Z,22.67
2022-08-20T07:28:14.801Z,22.76
2022-08-20T07:29:16.985Z,22.51
2022-08-20T07:30:56.500Z,22.36
2022-08-20T07:32:18.512Z,22.40
2022-08-20T07:33:25.933Z,22.46
2022-08-20T07:34:31.755Z,22.44
2022-08-20T07:35:34.034Z,22.70
2022-08-20T07:36:36.314Z,22.74
2022-08-20T07:37:43.115Z,22.99
2022-08-20T07:38:47.749Z,22.88
2022-08-20T07:39:50.527Z,22.98
2022-08-20T07:40:57.315Z,22.78
2022-08-20T07:42:07.411Z,22.73
2022-08-20T07:43:10.902Z,22.77
2022-08-20T07:44:13.657Z,22.61
2022-08-20T07:45:18.985Z,22.55
2022-08-20T07:46:21.809Z,22.45
2022-08-20T07:47:23.947Z,22.58
2022-08-20T07:48:32.119Z,22.63
2022-08-20T07:49:41.923Z,22.64
2022-08-20T07:50:44.432Z,22.72
2022-08-20T07:51:46.488Z,22.89
2022-08-20T07:52:48.746Z,22.65
2022-08-20T07:53:52.032Z,22.59
2022-08-20T07:54:54.411Z,22.56
2022-08-20T07:55:59.434Z,22.51
2022-08-20T07:57:05.473Z,22.58
2022-08-20T07:58:11.507Z,22.38
2022-08-20T07:59:14.079Z,22.48
2022-08-20T08:00:21.243Z,22.51
2022-08-20T08:01:30.851Z,22.63
2022-08-20T08:02:33.170Z,22.75
2022-08-20T08:03:48.955Z,22.64
2022-08-20T08:04:51.713Z,22.73
2022-08-20T08:05:54.191Z,22.81
2022-08-20T08:07:00.277Z,22.71
2022-08-20T08:08:07.138Z,22.73
2022-08-20T08:09:14.474Z,22.76
2022-08-20T08:10:22.583Z,22.66
2022-08-20T08:11:24.666Z,22.81
2022-08-20T08:12:33.417Z,22.82
2022-08-20T08:13:38.229Z,23.02
2022-08-20T08:14:43.865Z,22.95
2022-08-20T08:15:50.038Z,22.96
2022-08-20T08:16:55.365Z,23.00
2022-08-20T08:18:02.215Z,22.98
2022-08-20T08:19:08.275Z,23.02
2022-08-20T08:20:12.597Z,23.02
2022-08-20T08:21:14.951Z,22.72
2022-08-20T08:22:20.168Z,22.68
2022-08-20T08:23:32.099Z,22.74
2022-08-20T08:24:36.103Z,22.87
2022-08-20T08:25:46.271Z,22.86
2022-08-20T08:26:50.271Z,22.98
2022-08-20T08:27:55.667Z,23.07
2022-08-20T08:28:58.659Z,22.94
2022-08-20T08:30:01.799Z,22.85
2022-08-20T08:31:05.836Z,22.83
2022-08-20T08:32:07.949Z,22.72
2022-08-20T08:33:31.016Z,22.55
2022-08-20T08:34:36.160Z,22.69
2022-08-20T08:35:42.849Z,22.62
2022-08-20T08:36:45.659Z,22.66
2022-08-20T08:37:50.004Z,22.53
2022-08-20T08:38:52.138Z,22.60
2022-08-20T08:39:54.277Z,22.62
2022-08-20T08:41:02.331Z,22.62
2022-08-20T08:42:32.141Z,22.49
2022-08-20T08:43:37.542Z,22.52
2022-08-20T08:44:42.034Z,22.52
2022-08-20T08:45:48.388Z,22.41
2022-08-20T08:47:03.029Z,22.29
2022-08-20T08:48:05.513Z,22.37
2022-08-20T08:49:14.738Z,22.32
2022-08-20T08:50:50.133Z,22.32
2022-08-20T08:52:07.327Z,22.26
2022-08-20T08:53:27.205Z,22.29
2022-08-20T08:54:31.556Z,22.22
2022-08-20T08:55:34.329Z,22.19
2022-08-20T08:56:36.764Z,22.23
2022-08-20T08:57:38.849Z,22.30
2022-08-20T08:58:41.910Z,22.34
2022-08-20T09:00:03.636Z,22.38
2022-08-20T09:01:55.233Z,22.27
2022-08-20T09:03:03.249Z,22.22
2022-08-20T09:04:10.285Z,22.25
2022-08-20T09:05:16.299Z,22.27
2022-08-20T09:06:23.441Z,22.19
2022-08-20T09:07:28.589Z,22.14
2022-08-20T09:08:37.178Z,22.15
2022-08-20T09:09:43.193Z,22.18
2022-08-20T09:10:47.344Z,22.18
2022-08-20T09:11:55.564Z,22.06
2022-08-20T09:13:04.053Z,22.11
2022-08-20T09:14:06.855Z,22.06
2022-08-20T09:15:09.511Z,22.02
2022-08-20T09:16:13.188Z,22.03
2022-08-20T09:17:17.401Z,21.97
2022-08-20T09:18:19.554Z,21.95
2022-08-20T09:19:22.009Z,21.77
2022-08-20T09:20:26.915Z,21.83
2022-08-20T09:21:29.492Z,21.83
2022-08-20T09:22:33.549Z,21.79
2022-08-20T09:23:36.055Z,21.69
2022-08-20T09:24:38.621Z,21.69
2022-08-20T09:25:40.788Z,21.65
2022-08-20T09:26:42.921Z,21.62
2022-08-20T09:27:45.811Z,21.65
2022-08-20T09:28:52.067Z,21.59
2022-08-20T09:29:54.844Z,21.47
2022-08-20T09:30:57.921Z,21.46
2022-08-20T09:32:12.468Z,21.47
2022-08-20T09:33:15.846Z,21.36
2022-08-20T09:34:18.008Z,21.25
2022-08-20T09:35:20.048Z,21.28
2022-08-20T09:36:29.043Z,21.22
2022-08-20T09:37:37.496Z,21.26
2022-08-20T09:38:40.046Z,21.29
2022-08-20T09:39:43.263Z,21.34
2022-08-20T09:40:45.542Z,21.28
2022-08-20T09:41:47.569Z,21.24
2022-08-20T09:42:51.158Z,21.37
2022-08-20T09:43:53.494Z,21.32
2022-08-20T09:44:56.364Z,21.31
2022-08-20T09:46:00.906Z,21.28
2022-08-20T09:47:03.954Z,21.29
2022-08-20T09:48:10.712Z,21.24
2022-08-20T09:49:14.040Z,21.18
2022-08-20T09:50:16.376Z,21.27
2022-08-20T09:51:18.646Z,21.18
2022-08-20T09:52:24.985Z,21.14
2022-08-20T09:53:27.354Z,21.14
2022-08-20T09:54:30.745Z,21.23
2022-08-20T09:55:34.737Z,21.27
2022-08-20T09:56:38.192Z,21.30
2022-08-20T09:57:40.337Z,21.36
2022-08-20T09:58:54.091Z,21.35
2022-08-20T10:00:12.820Z,21.49
2022-08-20T10:01:17.177Z,21.15
2022-08-20T10:02:19.422Z,21.19
2022-08-20T10:03:21.533Z,21.10
2022-08-20T10:04:24.255Z,21.04
2022-08-20T10:05:26.725Z,21.08
2022-08-20T10:06:29.327Z,20.96
2022-08-20T10:07:31.457Z,21.00
2022-08-20T10:08:34.321Z,21.04
2022-08-20T10:09:37.303Z,20.99
2022-08-20T10:10:42.037Z,21.02
2022-08-20T10:11:44.470Z,20.94
2022-08-20T10:12:48.128Z,20.88
2022-08-20T10:13:52.176Z,20.96
2022-08-20T10:14:55.967Z,20.97
2022-08-20T10:15:58.581Z,20.90
2022-08-20T10:17:02.447Z,20.92
2022-08-20T10:18:07.904Z,20.85
2022-08-20T10:19:10.133Z,20.80
2022-08-20T10:20:14.798Z,20.74
2022-08-20T10:21:19.826Z,20.81
2022-08-20T10:22:22.019Z,20.82
2022-08-20T10:23:24.292Z,20.68
2022-08-20T10:24:27.457Z,20.73
2022-08-20T10:25:30.010Z,20.65
2022-08-20T10:26:32.178Z,20.56
2022-08-20T10:27:34.850Z,20.78
2022-08-20T10:28:39.820Z,20.80
2022-08-20T10:29:46.311Z,20.72
2022-08-20T10:30:49.142Z,20.82
2022-08-20T10:31:51.763Z,20.91
2022-08-20T10:32:54.141Z,20.77
2022-08-20T10:33:56.926Z,20.80
2022-08-20T10:34:59.266Z,20.97
2022-08-20T10:36:16.795Z,21.05
2022-08-20T10:37:22.606Z,21.07
2022-08-20T10:38:24.798Z,21.07
2022-08-20T10:39:27.102Z,21.10
2022-08-20T10:40:33.826Z,21.25
2022-08-20T10:41:38.955Z,21.20
2022-08-20T10:42:43.660Z,21.30
2022-08-20T10:43:46.257Z,21.28
2022-08-20T10:44:48.571Z,21.29
2022-08-20T10:45:51.469Z,21.37
2022-08-20T10:46:57.030Z,21.48
2022-08-20T10:48:02.714Z,21.41
2022-08-20T10:49:05.271Z,21.29
2022-08-20T10:50:10.839Z,21.27
2022-08-20T10:51:13.012Z,21.30
2022-08-20T10:52:15.130Z,21.39
2022-08-20T10:53:18.086Z,21.27
2022-08-20T10:54:20.235Z,21.26
2022-08-20T10:55:22.396Z,21.28
2022-08-20T10:56:24.554Z,21.20
2022-08-20T10:57:34.918Z,21.22
2022-08-20T10:58:39.606Z,21.21
2022-08-20T10:59:43.802Z,21.21
2022-08-20T11:00:47.517Z,21.17
2022-08-20T11:01:49.675Z,21.29
2022-08-20T11:02:52.120Z,21.25
2022-08-20T11:03:54.500Z,21.40
2022-08-20T11:04:57.185Z,21.37
2022-08-20T11:05:59.381Z,21.38
2022-08-20T11:07:53.505Z,21.49
2022-08-20T11:08:49.957Z,21.51
2022-08-20T11:09:55.306Z,21.41
2022-08-20T11:10:57.463Z,21.55
2022-08-20T11:11:59.644Z,21.47
2022-08-20T11:13:03.841Z,21.43
2022-08-20T11:14:05.976Z,21.50
2022-08-20T11:15:09.459Z,21.50
2022-08-20T11:16:12.676Z,21.54
2022-08-20T11:17:23.338Z,21.60
2022-08-20T11:18:25.439Z,21.69
2022-08-20T11:19:28.537Z,21.68
2022-08-20T11:20:32.136Z,21.60
2022-08-20T11:21:34.573Z,21.71
2022-08-20T11:22:37.091Z,21.79
2022-08-20T11:23:39.232Z,21.90
2022-08-20T11:24:41.492Z,21.86
2022-08-20T11:25:48.580Z,21.91
2022-08-20T11:26:53.504Z,21.87
2022-08-20T11:27:57.265Z,21.94
2022-08-20T11:28:59.412Z,21.85
2022-08-20T11:30:02.166Z,22.00
2022-08-20T11:31:05.181Z,22.10
2022-08-20T11:32:07.472Z,22.12
2022-08-20T11:33:12.221Z,22.13
2022-08-20T11:34:14.758Z,22.24
2022-08-20T11:36:40.667Z,22.03
2022-08-20T11:37:42.725Z,21.96
2022-08-20T11:38:45.074Z,21.91
2022-08-20T11:39:47.192Z,22.07
2022-08-20T11:40:49.360Z,22.19
2022-08-20T11:41:55.253Z,22.17
2022-08-20T11:43:14.220Z,22.23
2022-08-20T11:44:21.032Z,22.22
2022-08-20T11:45:23.844Z,22.15
2022-08-20T11:46:28.938Z,22.15
2022-08-20T11:47:31.718Z,22.13
2022-08-20T11:48:33.958Z,22.21
2022-08-20T11:49:37.693Z,22.14
2022-08-20T11:50:39.749Z,22.08
2022-08-20T11:51:49.861Z,22.11
2022-08-20T11:52:52.362Z,21.98
2022-08-20T11:53:54.711Z,22.14
2022-08-20T11:54:58.773Z,21.91
2022-08-20T11:56:01.687Z,22.08
2022-08-20T11:57:05.820Z,22.04
2022-08-20T11:58:08.021Z,22.07
2022-08-20T11:59:10.091Z,21.91
2022-08-20T12:00:20.246Z,21.90
2022-08-20T12:01:34.685Z,22.00
2022-08-20T12:02:36.915Z,22.13
2022-08-20T12:03:39.322Z,22.13
2022-08-20T12:04:42.785Z,22.26
2022-08-20T12:05:46.964Z,22.15
2022-08-20T12:06:49.162Z,22.27
2022-08-20T12:07:51.388Z,22.31
2022-08-20T12:08:53.474Z,22.25
2022-08-20T12:09:55.944Z,22.35
2022-08-20T12:11:00.397Z,22.33
2022-08-20T12:12:02.666Z,22.34
2022-08-20T12:14:07.712Z,22.40
2022-08-20T12:15:12.812Z,22.44
2022-08-20T12:16:15.617Z,22.52
2022-08-20T12:17:23.720Z,22.50
2022-08-20T12:18:27.043Z,22.52
2022-08-20T12:19:29.392Z,22.56
2022-08-20T12:20:31.561Z,22.72
2022-08-20T12:21:33.668Z,22.64
2022-08-20T12:22:35.863Z,22.53
2022-08-20T12:23:38.262Z,22.49
2022-08-20T12:24:42.077Z,22.64
2022-08-20T12:25:44.718Z,22.51
2022-08-20T12:26:48.174Z,22.55
2022-08-20T12:27:53.204Z,22.57
2022-08-20T12:28:56.678Z,22.76
2022-08-20T12:30:09.057Z,22.46
2022-08-20T12:31:15.653Z,22.46
2022-08-20T12:32:18.421Z,22.46
2022-08-20T12:33:22.766Z,22.38
2022-08-20T12:34:25.508Z,22.40
2022-08-20T12:35:28.003Z,22.33
2022-08-20T12:36:30.125Z,22.32
2022-08-20T12:37:32.856Z,22.32
2022-08-20T12:38:35.043Z,22.38
2022-08-20T12:39:42.049Z,22.21
2022-08-20T12:40:44.618Z,22.27
2022-08-20T12:41:46.922Z,22.32
2022-08-20T12:42:49.213Z,22.33
2022-08-20T12:43:51.357Z,22.28
2022-08-20T12:44:54.176Z,22.21
2022-08-20T12:45:56.390Z,22.25
2022-08-20T12:47:17.796Z,22.31
2022-08-20T12:48:21.186Z,22.19
2022-08-20T12:49:23.333Z,22.20
2022-08-20T12:50:30.934Z,22.25
2022-08-20T12:51:33.721Z,22.29
2022-08-20T12:52:36.957Z,22.33
2022-08-20T12:53:39.054Z,22.24
2022-08-20T12:54:41.577Z,22.41
2022-08-20T12:55:43.779Z,22.38
2022-08-20T12:56:46.472Z,22.33
2022-08-20T12:58:01.132Z,22.41
2022-08-20T12:59:03.135Z,22.50
2022-08-20T13:00:11.688Z,22.49
2022-08-20T13:01:15.936Z,22.50
2022-08-20T13:02:18.661Z,22.43
2022-08-20T13:03:21.236Z,22.52
2022-08-20T13:04:24.072Z,22.47
2022-08-20T13:05:27.080Z,22.46
2022-08-20T13:06:29.440Z,22.51
2022-08-20T13:07:32.555Z,22.50
2022-08-20T13:08:34.703Z,22.50
2022-08-20T13:09:36.727Z,22.42
2022-08-20T13:10:47.278Z,22.44
2022-08-20T13:11:49.486Z,22.44
2022-08-20T13:12:52.326Z,22.54
2022-08-20T13:13:54.655Z,22.41
2022-08-20T13:14:56.900Z,22.54
2022-08-20T13:15:58.959Z,22.51
2022-08-20T13:17:02.517Z,22.51
2022-08-20T13:18:06.569Z,22.62
2022-08-20T13:19:08.645Z,22.58
2022-08-20T13:20:15.109Z,22.61
2022-08-20T13:21:20.095Z,22.61
2022-08-20T13:22:26.103Z,22.58
2022-08-20T13:23:35.524Z,22.48
2022-08-20T13:24:38.454Z,22.46
2022-08-20T13:25:40.640Z,22.57
2022-08-20T13:26:42.822Z,22.56
2022-08-20T13:27:45.465Z,22.51
2022-08-20T13:28:47.956Z,22.42
2022-08-20T13:29:55.224Z,22.48
2022-08-20T13:31:02.997Z,22.41
2022-08-20T13:32:05.747Z,22.45
2022-08-20T13:33:07.849Z,22.44
2022-08-20T13:34:10.484Z,22.40
2022-08-20T13:35:13.555Z,22.37
2022-08-20T13:36:15.714Z,22.29
2022-08-20T13:37:25.949Z,22.26
2022-08-20T13:38:31.386Z,22.24
2022-08-20T13:39:33.696Z,22.30
2022-08-20T13:40:35.900Z,22.21
2022-08-20T13:41:38.042Z,22.30
2022-08-20T13:42:40.269Z,22.25
2022-08-20T13:43:43.450Z,22.26
2022-08-20T13:44:45.661Z,22.27
2022-08-20T13:45:47.739Z,22.31
2022-08-20T13:46:50.739Z,22.31
2022-08-20T13:47:55.234Z,22.36
2022-08-20T13:48:57.667Z,22.29
2022-08-20T13:50:08.695Z,22.29
2022-08-20T13:51:10.868Z,22.26
2022-08-20T13:52:13.431Z,22.26
2022-08-20T13:53:19.245Z,22.27
2022-08-20T13:54:21.667Z,22.29
2022-08-20T13:55:26.420Z,22.38
2022-08-20T13:56:29.582Z,22.32
2022-08-20T13:57:31.765Z,22.22
2022-08-20T13:58:33.903Z,22.22
2022-08-20T13:59:40.803Z,22.24
2022-08-20T14:00:43.093Z,22.25
2022-08-20T14:01:47.843Z,22.24
2022-08-20T14:02:50.076Z,22.28